Time;durP1;ratioP1;P1;durP2;ratioP2;P2;SDS_P1;SDS_P2;PMS_P1;PMS_P2;Temp;Humidity;BMP_temperature;BMP_pressure;BME280_temperature;BME280_humidity;BME280_pressure;Samples;Min_cycle;Max_cycle;Signal;HPM_P1;HPM_P2
2023/08/12 00:00:27;;;;;;;4.23;3.77;;;;;;;;;;5027708;28;20214;-54
2023/08/12 00:02:54;;;;;;;4.17;3.77;;;;;;;;;;5031198;28;20178;-54
2023/08/12 00:05:20;;;;;;;3.37;3.07;;;;;;;;;;5030953;28;20201;-54
2023/08/12 00:07:46;;;;;;;4.17;3.83;;;;;;;;;;5030649;28;20233;-54
2023/08/12 00:10:12;;;;;;;3.63;3.33;;;;;;;;;;5030572;28;20269;-53
2023/08/12 00:12:39;;;;;;;3.77;3.47;;;;;;;;;;5030953;28;20205;-55
2023/08/12 00:15:07;;;;;;;3.30;3.03;;;;;;;;;;5031021;28;20184;-55
2023/08/12 00:17:33;;;;;;;4.63;4.20;;;;;;;;;;5030901;28;20186;-55
2023/08/12 00:19:59;;;;;;;3.90;3.60;;;;;;;;;;5030978;28;20298;-55
2023/08/12 00:22:25;;;;;;;3.90;3.50;;;;;;;;;;5031129;28;20229;-53
2023/08/12 00:24:52;;;;;;;4.40;4.00;;;;;;;;;;5030019;28;20650;-53
2023/08/12 00:27:18;;;;;;;4.50;4.10;;;;;;;;;;5030777;28;20177;-54
2023/08/12 00:29:44;;;;;;;3.90;3.60;;;;;;;;;;5030585;28;20603;-53
2023/08/12 00:32:10;;;;;;;4.07;3.77;;;;;;;;;;5012403;28;20207;-56
2023/08/12 00:34:36;;;;;;;4.30;3.90;;;;;;;;;;5030252;28;20178;-56
2023/08/12 00:37:02;;;;;;;4.57;4.27;;;;;;;;;;5029839;28;20640;-56
2023/08/12 00:39:29;;;;;;;4.50;4.10;;;;;;;;;;5029269;28;20190;-56
2023/08/12 00:41:55;;;;;;;5.07;4.57;;;;;;;;;;5011997;28;20226;-56
2023/08/12 00:44:21;;;;;;;4.57;4.17;;;;;;;;;;5030914;28;20636;-56
2023/08/12 00:46:47;;;;;;;3.97;3.57;;;;;;;;;;5030068;28;20198;-56
2023/08/12 00:49:13;;;;;;;4.23;3.70;;;;;;;;;;5030731;28;20643;-56
2023/08/12 00:51:44;;;;;;;4.30;3.90;;;;;;;;;;5030581;28;20197;-56
2023/08/12 00:54:12;;;;;;;4.27;3.87;;;;;;;;;;5028816;28;20580;-56
2023/08/12 00:56:38;;;;;;;4.40;4.07;;;;;;;;;;5030193;28;20175;-56
2023/08/12 00:59:05;;;;;;;4.67;4.27;;;;;;;;;;5029363;28;20186;-56
2023/08/12 01:01:31;;;;;;;4.33;3.93;;;;;;;;;;5018386;28;20264;-56
2023/08/12 01:03:58;;;;;;;4.83;4.43;;;;;;;;;;5029695;28;20175;-56
2023/08/12 01:06:24;;;;;;;4.60;4.27;;;;;;;;;;5030348;28;20685;-56
2023/08/12 01:08:50;;;;;;;4.23;3.90;;;;;;;;;;5028215;28;20182;-56
2023/08/12 01:11:26;;;;;;;4.50;3.87;;;;;;;;;;5029784;28;20189;-56
2023/08/12 01:14:11;;;;;;;4.77;4.27;;;;;;;;;;5029404;28;20173;-56
2023/08/12 01:16:40;;;;;;;3.93;3.43;;;;;;;;;;5029519;28;20182;-56
2023/08/12 01:19:07;;;;;;;3.87;3.57;;;;;;;;;;5029098;28;20285;-55
2023/08/12 01:21:34;;;;;;;4.80;4.33;;;;;;;;;;5030066;28;20237;-55
2023/08/12 01:24:00;;;;;;;6.20;4.63;;;;;;;;;;5028485;28;20232;-55
2023/08/12 01:26:26;;;;;;;4.77;4.37;;;;;;;;;;5030327;28;20185;-55
2023/08/12 01:28:52;;;;;;;4.27;3.87;;;;;;;;;;5029161;28;20524;-55
2023/08/12 01:31:21;;;;;;;4.53;4.13;;;;;;;;;;5029560;28;20206;-55
2023/08/12 01:33:56;;;;;;;4.77;4.00;;;;;;;;;;5028983;28;20224;-55
2023/08/12 01:36:24;;;;;;;4.40;4.00;;;;;;;;;;5011693;28;20256;-55
2023/08/12 01:38:52;;;;;;;4.63;4.23;;;;;;;;;;5028381;28;20260;-56
2023/08/12 01:41:18;;;;;;;4.43;4.03;;;;;;;;;;5029584;28;20251;-55
2023/08/12 01:43:45;;;;;;;4.87;4.47;;;;;;;;;;5029245;28;20713;-52
2023/08/12 01:46:11;;;;;;;4.53;4.13;;;;;;;;;;5029736;28;20166;-52
2023/08/12 01:48:37;;;;;;;5.10;4.63;;;;;;;;;;5028947;28;20602;-53
2023/08/12 01:51:03;;;;;;;4.73;4.33;;;;;;;;;;5028886;28;20570;-52
2023/08/12 01:53:29;;;;;;;4.90;4.50;;;;;;;;;;5027724;28;20661;-53
2023/08/12 01:55:55;;;;;;;4.53;4.13;;;;;;;;;;5028930;28;20305;-53
2023/08/12 01:58:21;;;;;;;4.37;3.97;;;;;;;;;;5028839;28;20213;-53
2023/08/12 02:00:47;;;;;;;5.07;4.50;;;;;;;;;;5016043;28;20211;-53
2023/08/12 02:03:13;;;;;;;4.20;3.70;;;;;;;;;;5022211;28;20182;-52
2023/08/12 02:05:41;;;;;;;4.77;4.37;;;;;;;;;;5028756;28;20236;-52
2023/08/12 02:08:07;;;;;;;4.37;4.00;;;;;;;;;;5029007;28;20173;-52
2023/08/12 02:10:33;;;;;;;4.63;3.77;;;;;;;;;;5028578;28;20182;-52
2023/08/12 02:12:59;;;;;;;4.13;3.80;;;;;;;;;;5033382;28;20183;-52
2023/08/12 02:15:25;;;;;;;4.53;4.13;;;;;;;;;;5033480;28;20174;-52
2023/08/12 02:17:51;;;;;;;4.30;3.90;;;;;;;;;;5032926;28;20186;-52
2023/08/12 02:20:18;;;;;;;5.83;4.20;;;;;;;;;;5033002;28;20201;-52
2023/08/12 02:22:44;;;;;;;4.70;4.27;;;;;;;;;;5033075;28;20626;-52
2023/08/12 02:25:10;;;;;;;4.33;3.93;;;;;;;;;;5032064;28;20647;-53
2023/08/12 02:27:36;;;;;;;4.60;4.20;;;;;;;;;;5032816;28;20281;-54
2023/08/12 02:30:02;;;;;;;4.47;4.10;;;;;;;;;;5032973;28;20202;-52
2023/08/12 02:32:28;;;;;;;5.13;4.27;;;;;;;;;;5014977;28;20577;-52
2023/08/12 02:34:54;;;;;;;4.10;3.73;;;;;;;;;;5033102;28;20665;-52
2023/08/12 02:37:20;;;;;;;4.40;4.10;;;;;;;;;;5032250;28;20237;-51
2023/08/12 02:39:46;;;;;;;4.23;3.90;;;;;;;;;;5031750;28;20174;-51
2023/08/12 02:42:13;;;;;;;4.93;4.53;;;;;;;;;;5031730;28;20908;-51
2023/08/12 02:44:39;;;;;;;4.37;4.07;;;;;;;;;;5032318;28;20175;-52
2023/08/12 02:47:05;;;;;;;4.10;3.73;;;;;;;;;;5032676;28;20182;-52
2023/08/12 02:49:31;;;;;;;3.90;3.60;;;;;;;;;;5032376;28;20545;-51
2023/08/12 02:51:57;;;;;;;4.67;4.17;;;;;;;;;;5032126;28;20598;-51
2023/08/12 02:54:23;;;;;;;4.47;4.07;;;;;;;;;;5031502;28;20244;-52
2023/08/12 02:56:50;;;;;;;4.73;4.33;;;;;;;;;;5032265;28;20199;-52
2023/08/12 02:59:16;;;;;;;4.77;4.37;;;;;;;;;;5031768;28;20273;-52
2023/08/12 03:01:42;;;;;;;4.57;4.17;;;;;;;;;;5014359;28;20237;-52
2023/08/12 03:04:08;;;;;;;4.47;4.07;;;;;;;;;;5032046;28;20209;-52
2023/08/12 03:06:34;;;;;;;4.70;4.00;;;;;;;;;;5032656;28;20639;-52
2023/08/12 03:09:00;;;;;;;4.53;4.23;;;;;;;;;;5031071;28;20689;-52
2023/08/12 03:11:26;;;;;;;4.77;4.37;;;;;;;;;;5032179;28;20182;-53
2023/08/12 03:13:52;;;;;;;4.87;4.53;;;;;;;;;;5032370;28;20190;-52
2023/08/12 03:16:18;;;;;;;5.03;4.60;;;;;;;;;;5032297;28;20185;-53
2023/08/12 03:18:45;;;;;;;4.10;3.80;;;;;;;;;;5031574;28;20476;-53
2023/08/12 03:21:11;;;;;;;5.20;4.37;;;;;;;;;;5031928;28;20206;-52
2023/08/12 03:23:37;;;;;;;5.27;4.73;;;;;;;;;;5030309;28;20212;-53
2023/08/12 03:26:04;;;;;;;4.63;4.23;;;;;;;;;;5032073;28;20193;-52
2023/08/12 03:28:30;;;;;;;5.30;4.87;;;;;;;;;;5031976;28;20257;-52
2023/08/12 03:30:56;;;;;;;5.83;5.27;;;;;;;;;;5031952;28;20210;-52
2023/08/12 03:33:23;;;;;;;5.43;5.03;;;;;;;;;;5031210;28;20178;-52
2023/08/12 03:35:49;;;;;;;5.73;5.23;;;;;;;;;;5031741;28;20220;-52
2023/08/12 03:38:15;;;;;;;5.83;5.23;;;;;;;;;;5031053;28;20245;-52
2023/08/12 03:40:42;;;;;;;6.00;5.40;;;;;;;;;;5030550;28;20236;-52
2023/08/12 03:43:08;;;;;;;6.73;6.00;;;;;;;;;;5031717;28;20713;-52
2023/08/12 03:45:40;;;;;;;5.60;5.10;;;;;;;;;;5032003;28;20205;-52
2023/08/12 03:48:06;;;;;;;6.70;5.97;;;;;;;;;;5031778;28;20765;-52
2023/08/12 03:50:35;;;;;;;6.03;5.53;;;;;;;;;;5030953;28;20289;-52
2023/08/12 03:53:01;;;;;;;5.77;5.30;;;;;;;;;;5030879;28;20198;-52
2023/08/12 03:55:27;;;;;;;6.20;5.60;;;;;;;;;;5030721;28;20184;-52
2023/08/12 03:57:54;;;;;;;5.23;4.73;;;;;;;;;;5031266;28;20662;-52
2023/08/12 04:00:20;;;;;;;7.33;5.80;;;;;;;;;;5022143;28;20215;-52
2023/08/12 04:02:46;;;;;;;6.50;5.33;;;;;;;;;;5011683;28;20582;-52
2023/08/12 04:05:12;;;;;;;7.57;6.87;;;;;;;;;;5023426;28;20216;-53
2023/08/12 04:07:38;;;;;;;7.20;6.50;;;;;;;;;;5030873;28;20212;-54
2023/08/12 04:10:05;;;;;;;6.17;5.57;;;;;;;;;;5030606;28;20709;-54
2023/08/12 04:12:31;;;;;;;6.50;5.90;;;;;;;;;;5031010;28;20542;-54
2023/08/12 04:14:57;;;;;;;6.97;5.93;;;;;;;;;;5030877;28;20178;-51
2023/08/12 04:17:23;;;;;;;6.77;6.07;;;;;;;;;;5030786;28;20174;-51
2023/08/12 04:19:49;;;;;;;7.00;6.30;;;;;;;;;;5029604;28;20205;-51
2023/08/12 04:22:16;;;;;;;6.37;5.87;;;;;;;;;;5028569;28;20254;-52
2023/08/12 04:24:42;;;;;;;6.73;6.13;;;;;;;;;;5029772;28;20174;-50
2023/08/12 04:27:08;;;;;;;6.70;6.10;;;;;;;;;;5030678;28;20183;-51
2023/08/12 04:29:35;;;;;;;6.17;5.50;;;;;;;;;;5030837;28;20182;-51
2023/08/12 04:32:01;;;;;;;6.40;5.80;;;;;;;;;;5030491;28;20693;-51
2023/08/12 04:34:27;;;;;;;6.10;5.50;;;;;;;;;;5029328;28;20634;-50
2023/08/12 04:36:54;;;;;;;6.93;6.10;;;;;;;;;;5030101;28;20252;-50
2023/08/12 04:39:20;;;;;;;5.93;5.43;;;;;;;;;;5029770;28;20194;-50
2023/08/12 04:41:46;;;;;;;6.13;5.53;;;;;;;;;;5030658;28;20217;-51
2023/08/12 04:44:12;;;;;;;6.60;5.90;;;;;;;;;;5029943;28;20182;-50
2023/08/12 04:46:38;;;;;;;7.43;6.07;;;;;;;;;;5030133;28;20664;-52
2023/08/12 04:49:04;;;;;;;5.93;5.33;;;;;;;;;;5030238;28;20656;-50
2023/08/12 04:51:30;;;;;;;5.83;5.27;;;;;;;;;;5030539;28;20197;-51
2023/08/12 04:53:56;;;;;;;6.10;5.60;;;;;;;;;;5028988;28;20215;-50
2023/08/12 04:56:24;;;;;;;6.10;5.50;;;;;;;;;;5030495;28;20288;-50
2023/08/12 04:58:50;;;;;;;6.10;5.60;;;;;;;;;;5029568;28;20194;-50
2023/08/12 05:01:16;;;;;;;5.70;5.20;;;;;;;;;;5029642;28;20214;-50
2023/08/12 05:03:42;;;;;;;5.57;5.07;;;;;;;;;;5029695;28;20190;-50
2023/08/12 05:06:08;;;;;;;7.80;5.87;;;;;;;;;;5029966;28;20185;-50
2023/08/12 05:08:34;;;;;;;5.77;5.27;;;;;;;;;;5028625;28;20224;-50
2023/08/12 05:11:00;;;;;;;5.70;5.20;;;;;;;;;;5029841;28;20174;-51
2023/08/12 05:13:28;;;;;;;5.87;5.23;;;;;;;;;;5029906;28;20201;-51
2023/08/12 05:15:54;;;;;;;6.30;5.77;;;;;;;;;;5029687;28;20159;-50
2023/08/12 05:18:23;;;;;;;5.97;5.40;;;;;;;;;;5029953;28;20200;-51
2023/08/12 05:20:51;;;;;;;5.67;5.17;;;;;;;;;;5029284;28;20233;-51
2023/08/12 05:23:17;;;;;;;6.53;5.93;;;;;;;;;;5029180;28;20181;-52
2023/08/12 05:25:44;;;;;;;5.77;5.27;;;;;;;;;;5028903;28;20170;-51
2023/08/12 05:28:10;;;;;;;5.47;5.07;;;;;;;;;;5029582;28;20321;-51
2023/08/12 05:30:37;;;;;;;5.63;5.10;;;;;;;;;;5029273;28;20245;-50
2023/08/12 05:33:03;;;;;;;5.80;5.27;;;;;;;;;;5029894;28;20166;-51
2023/08/12 05:35:33;;;;;;;6.87;5.80;;;;;;;;;;5029426;28;20641;-54
2023/08/12 05:37:59;;;;;;;5.00;4.53;;;;;;;;;;5028656;28;20739;-54
2023/08/12 05:40:25;;;;;;;5.90;5.30;;;;;;;;;;5028685;28;20205;-54
2023/08/12 05:42:51;;;;;;;5.20;4.80;;;;;;;;;;5029451;28;20174;-54
2023/08/12 05:45:17;;;;;;;5.37;4.87;;;;;;;;;;5029041;28;20575;-54
2023/08/12 05:47:43;;;;;;;5.37;4.97;;;;;;;;;;5029590;28;20648;-53
2023/08/12 05:50:09;;;;;;;5.70;5.23;;;;;;;;;;5029079;28;20194;-53
2023/08/12 05:52:35;;;;;;;5.73;5.23;;;;;;;;;;5028667;28;20221;-54
2023/08/12 05:55:01;;;;;;;7.60;5.27;;;;;;;;;;5028929;28;20186;-53
2023/08/12 05:57:28;;;;;;;5.13;4.70;;;;;;;;;;5029295;28;20280;-51
2023/08/12 05:59:54;;;;;;;5.17;4.77;;;;;;;;;;5023264;28;20194;-52
2023/08/12 06:02:20;;;;;;;5.60;5.20;;;;;;;;;;5009640;28;20237;-51
2023/08/12 06:04:46;;;;;;;5.47;4.70;;;;;;;;;;5009204;28;20636;-51
2023/08/12 06:07:12;;;;;;;5.77;5.17;;;;;;;;;;5021744;28;20183;-51
2023/08/12 06:09:39;;;;;;;5.80;5.30;;;;;;;;;;5027964;28;20182;-52
2023/08/12 06:12:06;;;;;;;4.80;4.40;;;;;;;;;;5029141;28;20169;-52
2023/08/12 06:14:32;;;;;;;5.70;4.77;;;;;;;;;;5028467;28;20664;-52
2023/08/12 06:16:58;;;;;;;5.43;4.87;;;;;;;;;;5029220;28;20194;-52
2023/08/12 06:19:24;;;;;;;5.20;4.70;;;;;;;;;;5029133;28;20194;-52
2023/08/12 06:21:50;;;;;;;4.50;4.03;;;;;;;;;;5028276;28;20677;-53
2023/08/12 06:24:16;;;;;;;5.10;4.50;;;;;;;;;;5028191;28;20190;-53
2023/08/12 06:26:42;;;;;;;5.53;4.60;;;;;;;;;;5029378;28;20548;-52
2023/08/12 06:29:08;;;;;;;5.40;4.77;;;;;;;;;;5028287;28;20192;-54
2023/08/12 06:31:37;;;;;;;6.43;5.30;;;;;;;;;;5029160;28;20300;-53
2023/08/12 06:34:03;;;;;;;5.40;4.97;;;;;;;;;;5028803;28;20170;-53
2023/08/12 06:36:29;;;;;;;5.40;4.90;;;;;;;;;;5028707;28;20189;-52
2023/08/12 06:38:55;;;;;;;6.50;4.73;;;;;;;;;;5027714;28;20186;-52
2023/08/12 06:41:21;;;;;;;5.70;5.10;;;;;;;;;;5029256;28;20217;-56
2023/08/12 06:43:47;;;;;;;7.20;5.63;;;;;;;;;;5028657;28;20182;-56
2023/08/12 06:46:13;;;;;;;5.50;4.67;;;;;;;;;;5028888;28;20599;-56
2023/08/12 06:48:40;;;;;;;5.40;4.80;;;;;;;;;;5028625;28;20182;-55
2023/08/12 06:51:14;;;;;;;6.37;5.40;;;;;;;;;;5028401;28;20182;-56
2023/08/12 06:53:41;;;;;;;7.67;4.73;;;;;;;;;;5026885;28;20178;-56
2023/08/12 06:56:07;;;;;;;5.40;4.90;;;;;;;;;;5028579;28;20178;-56
2023/08/12 06:58:33;;;;;;;5.60;4.80;;;;;;;;;;5030433;28;20194;-55
2023/08/12 07:00:59;;;;;;;5.73;5.23;;;;;;;;;;5031913;28;20214;-56
2023/08/12 07:03:26;;;;;;;5.80;4.97;;;;;;;;;;5032426;28;20591;-55
2023/08/12 07:05:53;;;;;;;5.20;4.70;;;;;;;;;;5032695;28;20251;-53
2023/08/12 07:08:19;;;;;;;6.87;5.03;;;;;;;;;;5013886;28;20189;-53
2023/08/12 07:10:45;;;;;;;5.33;4.63;;;;;;;;;;5030952;28;20179;-51
2023/08/12 07:13:11;;;;;;;4.87;4.37;;;;;;;;;;5032516;28;20183;-53
2023/08/12 07:15:38;;;;;;;5.40;4.90;;;;;;;;;;5031789;28;20256;-53
2023/08/12 07:18:04;;;;;;;6.13;5.17;;;;;;;;;;5032135;28;20178;-53
2023/08/12 07:20:30;;;;;;;5.17;4.73;;;;;;;;;;5031999;28;20209;-52
2023/08/12 07:22:56;;;;;;;6.37;5.03;;;;;;;;;;5031307;28;20170;-52
2023/08/12 07:25:22;;;;;;;5.40;4.90;;;;;;;;;;5031246;28;20575;-52
2023/08/12 07:27:48;;;;;;;5.37;4.90;;;;;;;;;;5032102;28;20536;-52
2023/08/12 07:30:15;;;;;;;5.30;4.80;;;;;;;;;;5031627;28;20228;-52
2023/08/12 07:32:41;;;;;;;7.37;4.40;;;;;;;;;;5031822;28;20709;-53
2023/08/12 07:35:07;;;;;;;5.07;4.57;;;;;;;;;;5031876;28;20532;-52
2023/08/12 07:37:33;;;;;;;5.70;5.20;;;;;;;;;;5031208;28;20580;-52
2023/08/12 07:39:59;;;;;;;4.77;4.37;;;;;;;;;;5012974;28;20784;-53
2023/08/12 07:42:26;;;;;;;4.90;4.50;;;;;;;;;;5032138;28;20517;-52
2023/08/12 07:44:52;;;;;;;5.17;4.57;;;;;;;;;;5031330;28;20287;-52
2023/08/12 07:47:18;;;;;;;5.87;4.97;;;;;;;;;;5031643;28;20725;-52
2023/08/12 07:49:44;;;;;;;4.50;4.10;;;;;;;;;;5013889;28;20186;-53
2023/08/12 07:52:10;;;;;;;5.00;4.60;;;;;;;;;;5031330;28;20194;-53
2023/08/12 07:54:39;;;;;;;5.03;4.57;;;;;;;;;;5030781;28;20552;-53
2023/08/12 07:57:06;;;;;;;4.43;4.03;;;;;;;;;;5031362;28;20198;-53
2023/08/12 07:59:32;;;;;;;4.53;3.97;;;;;;;;;;5027487;28;20565;-52
2023/08/12 08:01:58;;;;;;;4.80;4.00;;;;;;;;;;5027190;28;20218;-54
2023/08/12 08:04:24;;;;;;;4.50;4.10;;;;;;;;;;5031189;28;20189;-53
2023/08/12 08:06:50;;;;;;;4.23;3.80;;;;;;;;;;5030950;28;20175;-53
2023/08/12 08:09:16;;;;;;;4.87;4.57;;;;;;;;;;5030302;28;20185;-54
2023/08/12 08:11:43;;;;;;;4.13;3.83;;;;;;;;;;5031365;28;20543;-54
2023/08/12 08:14:09;;;;;;;4.13;3.80;;;;;;;;;;5030983;28;20198;-53
2023/08/12 08:16:35;;;;;;;4.10;3.70;;;;;;;;;;5031475;28;20236;-53
2023/08/12 08:19:01;;;;;;;5.77;4.13;;;;;;;;;;5030789;28;20221;-53
2023/08/12 08:21:27;;;;;;;3.97;3.67;;;;;;;;;;5031022;28;20194;-53
2023/08/12 08:23:53;;;;;;;4.03;3.73;;;;;;;;;;5029708;28;20174;-53
2023/08/12 08:26:19;;;;;;;4.20;3.80;;;;;;;;;;5030872;28;20182;-53
2023/08/12 08:28:46;;;;;;;4.73;4.00;;;;;;;;;;5030712;28;20647;-53
2023/08/12 08:31:12;;;;;;;4.33;3.80;;;;;;;;;;5031132;28;20210;-52
2023/08/12 08:33:38;;;;;;;4.10;3.63;;;;;;;;;;5030341;28;20573;-52
2023/08/12 08:36:04;;;;;;;4.00;3.70;;;;;;;;;;5030822;28;20205;-52
2023/08/12 08:38:30;;;;;;;5.13;4.63;;;;;;;;;;5029289;28;20232;-53
2023/08/12 08:40:58;;;;;;;3.93;3.63;;;;;;;;;;5030485;28;20194;-53
2023/08/12 08:43:28;;;;;;;4.20;3.80;;;;;;;;;;5030626;28;20179;-53
2023/08/12 08:45:54;;;;;;;4.13;3.73;;;;;;;;;;5030455;28;20316;-53
2023/08/12 08:48:21;;;;;;;5.13;3.93;;;;;;;;;;5030447;28;20182;-52
2023/08/12 08:50:48;;;;;;;4.47;4.07;;;;;;;;;;5030089;28;20707;-52
2023/08/12 08:53:15;;;;;;;4.43;3.63;;;;;;;;;;5029752;28;20224;-52
2023/08/12 08:55:42;;;;;;;4.60;4.20;;;;;;;;;;5029321;28;20201;-52
2023/08/12 08:58:08;;;;;;;4.53;4.13;;;;;;;;;;5029768;28;20189;-52
2023/08/12 09:00:34;;;;;;;4.10;3.80;;;;;;;;;;5018953;28;20226;-52
2023/08/12 09:03:02;;;;;;;4.30;4.00;;;;;;;;;;5010227;28;20183;-52
2023/08/12 09:05:29;;;;;;;5.27;4.07;;;;;;;;;;5010467;28;20542;-52
2023/08/12 09:07:56;;;;;;;4.03;3.73;;;;;;;;;;5009632;28;20174;-52
2023/08/12 09:10:25;;;;;;;4.40;3.67;;;;;;;;;;5026718;28;20197;-52
2023/08/12 09:12:52;;;;;;;3.57;3.27;;;;;;;;;;5029756;28;20179;-53
2023/08/12 09:15:18;;;;;;;4.13;3.83;;;;;;;;;;5029730;28;20170;-52
2023/08/12 09:17:45;;;;;;;4.13;3.73;;;;;;;;;;5029768;28;20671;-52
2023/08/12 09:20:11;;;;;;;3.97;3.63;;;;;;;;;;5029110;28;20205;-53
2023/08/12 09:22:38;;;;;;;4.70;4.23;;;;;;;;;;5029404;28;20267;-53
2023/08/12 09:25:04;;;;;;;4.00;3.70;;;;;;;;;;5029458;28;20182;-53
2023/08/12 09:27:34;;;;;;;3.80;3.50;;;;;;;;;;5030002;28;20209;-52
2023/08/12 09:30:03;;;;;;;4.23;3.77;;;;;;;;;;5029662;28;20701;-52
2023/08/12 09:32:29;;;;;;;3.60;3.30;;;;;;;;;;5030044;28;20548;-53
2023/08/12 09:34:55;;;;;;;3.67;3.37;;;;;;;;;;5029771;28;20170;-53
2023/08/12 09:37:23;;;;;;;3.30;3.00;;;;;;;;;;5029220;28;20631;-56
2023/08/12 09:39:49;;;;;;;4.17;3.87;;;;;;;;;;5028534;28;20182;-56
2023/08/12 09:42:16;;;;;;;4.20;3.80;;;;;;;;;;5011705;28;20209;-56
2023/08/12 09:44:42;;;;;;;3.63;3.33;;;;;;;;;;5029437;28;20257;-56
2023/08/12 09:47:09;;;;;;;3.80;3.50;;;;;;;;;;5029607;28;20181;-57
2023/08/12 09:49:35;;;;;;;4.97;3.27;;;;;;;;;;5029076;28;20490;-56
2023/08/12 09:52:02;;;;;;;3.40;3.10;;;;;;;;;;5028905;28;20220;-56
2023/08/12 09:54:29;;;;;;;3.50;3.20;;;;;;;;;;5028342;28;20206;-56
2023/08/12 09:56:58;;;;;;;3.60;3.30;;;;;;;;;;5029189;28;20367;-56
2023/08/12 09:59:27;;;;;;;3.43;3.10;;;;;;;;;;5027856;28;20197;-56
2023/08/12 10:01:55;;;;;;;3.90;3.53;;;;;;;;;;5009618;28;20209;-56
2023/08/12 10:04:24;;;;;;;3.80;3.50;;;;;;;;;;5009738;28;20635;-56
2023/08/12 10:06:50;;;;;;;3.30;3.00;;;;;;;;;;5008987;28;20572;-56
2023/08/12 10:09:18;;;;;;;3.03;2.83;;;;;;;;;;5017141;28;20197;-56
2023/08/12 10:11:44;;;;;;;3.40;3.10;;;;;;;;;;5029045;28;20728;-56
2023/08/12 10:14:10;;;;;;;3.20;3.00;;;;;;;;;;5029443;28;20224;-56
2023/08/12 10:16:37;;;;;;;3.07;2.77;;;;;;;;;;5029153;28;20182;-56
2023/08/12 10:19:05;;;;;;;2.90;2.70;;;;;;;;;;5029093;28;20653;-56
2023/08/12 10:21:31;;;;;;;2.73;2.53;;;;;;;;;;5028783;28;20213;-55
2023/08/12 10:24:01;;;;;;;2.80;2.60;;;;;;;;;;5027243;28;20559;-55
2023/08/12 10:26:28;;;;;;;2.90;2.70;;;;;;;;;;5029116;28;20174;-55
2023/08/12 10:28:56;;;;;;;2.80;2.60;;;;;;;;;;5028965;28;20245;-57
2023/08/12 10:31:22;;;;;;;2.97;2.70;;;;;;;;;;5029041;28;20214;-56
2023/08/12 10:33:49;;;;;;;2.80;2.60;;;;;;;;;;5031050;28;20190;-55
2023/08/12 10:36:19;;;;;;;2.80;2.60;;;;;;;;;;5033286;28;20626;-56
2023/08/12 10:38:45;;;;;;;2.73;2.53;;;;;;;;;;5031681;28;20194;-55
2023/08/12 10:41:16;;;;;;;4.10;2.30;;;;;;;;;;5032710;28;20228;-55
2023/08/12 10:43:57;;;;;;;7.70;2.20;;;;;;;;;;5032415;28;20174;-56
2023/08/12 10:46:24;;;;;;;4.25;2.60;;;;;;;;;;5031631;28;20889;-56
2023/08/12 10:49:00;;;;;;;2.57;2.37;;;;;;;;;;5032683;28;20541;-56
2023/08/12 10:51:42;;;;;;;2.17;2.03;;;;;;;;;;5033396;28;20174;-56
2023/08/12 10:54:18;;;;;;;2.40;2.20;;;;;;;;;;5031591;28;20519;-56
2023/08/12 10:57:02;;;;;;;2.27;2.13;;;;;;;;;;5032715;28;20166;-56
2023/08/12 10:59:47;;;;;;;2.43;2.23;;;;;;;;;;5032414;28;20565;-53
2023/08/12 11:02:17;;;;;;;2.10;2.00;;;;;;;;;;5032504;28;20205;-53
2023/08/12 11:04:43;;;;;;;2.23;2.03;;;;;;;;;;5032302;28;20163;-53
2023/08/12 11:07:16;;;;;;;2.40;2.20;;;;;;;;;;5032087;28;20182;-53
2023/08/12 11:09:42;;;;;;;2.50;2.00;;;;;;;;;;5031461;28;20189;-52
2023/08/12 11:12:09;;;;;;;2.27;2.00;;;;;;;;;;5032369;28;20221;-52
2023/08/12 11:14:48;;;;;;;1.90;1.80;;;;;;;;;;5032381;28;20170;-52
2023/08/12 11:17:15;;;;;;;2.10;1.90;;;;;;;;;;5031933;28;20213;-52
2023/08/12 11:19:42;;;;;;;1.87;1.77;;;;;;;;;;5031846;28;20243;-52
2023/08/12 11:22:08;;;;;;;2.30;1.80;;;;;;;;;;5031777;28;20225;-52
2023/08/12 11:24:35;;;;;;;2.10;1.90;;;;;;;;;;5031348;28;20656;-51
2023/08/12 11:27:02;;;;;;;2.07;1.97;;;;;;;;;;5032227;28;20618;-52
2023/08/12 11:29:28;;;;;;;1.90;1.80;;;;;;;;;;5031706;28;20170;-52
2023/08/12 11:31:54;;;;;;;2.27;2.07;;;;;;;;;;5032142;28;20707;-52
2023/08/12 11:34:20;;;;;;;1.80;1.70;;;;;;;;;;5031585;28;20186;-51
2023/08/12 11:36:47;;;;;;;2.60;2.13;;;;;;;;;;5031378;28;20226;-52
2023/08/12 11:39:13;;;;;;;1.80;1.70;;;;;;;;;;5030612;28;20187;-52
2023/08/12 11:41:39;;;;;;;1.90;1.80;;;;;;;;;;5031829;28;20198;-52
2023/08/12 11:44:05;;;;;;;1.87;1.77;;;;;;;;;;5031020;28;20628;-52
2023/08/12 11:46:33;;;;;;;1.80;1.70;;;;;;;;;;5031588;28;20181;-52
2023/08/12 11:48:59;;;;;;;1.73;1.63;;;;;;;;;;5029030;28;20186;-51
2023/08/12 11:51:25;;;;;;;1.80;1.70;;;;;;;;;;5029787;28;20571;-52
2023/08/12 11:53:51;;;;;;;1.80;1.70;;;;;;;;;;5029862;28;20359;-52
2023/08/12 11:56:20;;;;;;;1.90;1.80;;;;;;;;;;5031421;28;20200;-52
2023/08/12 11:58:50;;;;;;;2.40;1.60;;;;;;;;;;5031161;28;20607;-51
2023/08/12 12:01:16;;;;;;;1.70;1.60;;;;;;;;;;5031072;28;20224;-52
2023/08/12 12:03:43;;;;;;;2.03;1.93;;;;;;;;;;5031349;28;20197;-52
2023/08/12 12:06:09;;;;;;;2.00;1.90;;;;;;;;;;5031667;28;20248;-53
2023/08/12 12:08:35;;;;;;;1.93;1.60;;;;;;;;;;5029939;28;20178;-53
2023/08/12 12:11:05;;;;;;;1.80;1.70;;;;;;;;;;5031031;28;20540;-53
2023/08/12 12:13:31;;;;;;;1.90;1.80;;;;;;;;;;5030426;28;20193;-52
2023/08/12 12:15:58;;;;;;;2.10;1.90;;;;;;;;;;5030843;28;20643;-53
2023/08/12 12:18:26;;;;;;;1.77;1.67;;;;;;;;;;5031007;28;20217;-53
2023/08/12 12:20:55;;;;;;;1.90;1.80;;;;;;;;;;5030777;28;20221;-52
2023/08/12 12:23:21;;;;;;;2.00;1.90;;;;;;;;;;5030368;28;20167;-52
2023/08/12 12:25:47;;;;;;;2.00;1.90;;;;;;;;;;5030020;28;20191;-53
2023/08/12 12:28:14;;;;;;;2.30;2.10;;;;;;;;;;5030620;28;20648;-53
2023/08/12 12:30:40;;;;;;;2.50;2.30;;;;;;;;;;5030053;28;20209;-55
2023/08/12 12:33:06;;;;;;;2.00;1.90;;;;;;;;;;5031082;28;20272;-55
2023/08/12 12:35:32;;;;;;;2.33;2.13;;;;;;;;;;5030632;28;20205;-56
2023/08/12 12:37:58;;;;;;;2.90;2.70;;;;;;;;;;5030166;28;20232;-55
2023/08/12 12:40:24;;;;;;;2.70;2.50;;;;;;;;;;5030047;28;20182;-52
2023/08/12 12:42:50;;;;;;;2.37;2.27;;;;;;;;;;5030704;28;20639;-53
2023/08/12 12:45:16;;;;;;;3.33;3.03;;;;;;;;;;5030499;28;20631;-53
2023/08/12 12:47:42;;;;;;;2.77;2.57;;;;;;;;;;5030426;28;20182;-53
2023/08/12 12:50:08;;;;;;;3.00;2.80;;;;;;;;;;5030557;28;20573;-53
2023/08/12 12:52:34;;;;;;;3.03;2.83;;;;;;;;;;5030165;28;20174;-53
2023/08/12 12:55:04;;;;;;;3.10;2.90;;;;;;;;;;5011005;28;20186;-53
2023/08/12 12:57:30;;;;;;;2.77;2.57;;;;;;;;;;5029900;28;20197;-53
2023/08/12 12:59:56;;;;;;;4.03;3.30;;;;;;;;;;5013870;28;20700;-52
2023/08/12 13:02:22;;;;;;;3.40;3.10;;;;;;;;;;5029994;28;20218;-52
2023/08/12 13:04:49;;;;;;;3.57;3.27;;;;;;;;;;5029944;28;20197;-53
2023/08/12 13:07:15;;;;;;;3.40;3.20;;;;;;;;;;5029864;28;20177;-52
2023/08/12 13:09:41;;;;;;;3.30;3.10;;;;;;;;;;5029346;28;20562;-52
2023/08/12 13:12:07;;;;;;;4.27;3.83;;;;;;;;;;5029429;28;20189;-52
2023/08/12 13:14:33;;;;;;;3.53;3.30;;;;;;;;;;5030029;28;20680;-53
2023/08/12 13:16:59;;;;;;;3.10;2.90;;;;;;;;;;5030049;28;20525;-53
2023/08/12 13:19:26;;;;;;;3.20;3.00;;;;;;;;;;5030027;28;20541;-53
2023/08/12 13:21:52;;;;;;;3.27;3.07;;;;;;;;;;5029044;28;20214;-53
2023/08/12 13:24:18;;;;;;;4.30;4.00;;;;;;;;;;5028665;28;20205;-53
2023/08/12 13:26:44;;;;;;;4.13;3.83;;;;;;;;;;5029036;28;20919;-54
2023/08/12 13:29:10;;;;;;;3.60;3.30;;;;;;;;;;5029387;28;20186;-53
2023/08/12 13:31:36;;;;;;;3.33;3.13;;;;;;;;;;5029551;28;20265;-53
2023/08/12 13:34:02;;;;;;;3.10;2.90;;;;;;;;;;5029414;28;20209;-53
2023/08/12 13:36:30;;;;;;;3.30;3.10;;;;;;;;;;5030026;28;20625;-54
2023/08/12 13:38:56;;;;;;;3.00;2.80;;;;;;;;;;5028566;28;20224;-53
2023/08/12 13:41:22;;;;;;;3.37;3.13;;;;;;;;;;5011634;28;20226;-53
2023/08/12 13:43:49;;;;;;;3.60;3.30;;;;;;;;;;5029025;28;20177;-53
2023/08/12 13:46:15;;;;;;;3.93;3.23;;;;;;;;;;5029767;28;20193;-53
2023/08/12 13:48:41;;;;;;;3.63;3.43;;;;;;;;;;5029138;28;20170;-54
2023/08/12 13:51:08;;;;;;;3.27;2.97;;;;;;;;;;5029723;28;20633;-53
2023/08/12 13:53:34;;;;;;;3.97;3.67;;;;;;;;;;5028044;28;20186;-53
2023/08/12 13:56:00;;;;;;;3.50;3.30;;;;;;;;;;5029259;28;20190;-52
2023/08/12 13:58:26;;;;;;;3.37;3.17;;;;;;;;;;5028946;28;20178;-52
2023/08/12 14:00:55;;;;;;;4.30;3.93;;;;;;;;;;5028836;28;20261;-52
2023/08/12 14:03:21;;;;;;;4.17;3.87;;;;;;;;;;5009852;28;20225;-52
2023/08/12 14:05:48;;;;;;;4.30;4.00;;;;;;;;;;5009472;28;20175;-52
2023/08/12 14:08:15;;;;;;;4.80;4.40;;;;;;;;;;5008950;28;20186;-52
2023/08/12 14:10:41;;;;;;;5.10;4.70;;;;;;;;;;4993418;28;20197;-54
2023/08/12 14:13:08;;;;;;;4.67;4.37;;;;;;;;;;5029238;28;20170;-53
2023/08/12 14:15:34;;;;;;;5.50;5.10;;;;;;;;;;5028569;28;20210;-52
2023/08/12 14:18:01;;;;;;;5.93;5.43;;;;;;;;;;5029300;28;20397;-53
2023/08/12 14:20:27;;;;;;;6.40;5.80;;;;;;;;;;5029179;28;20174;-53
2023/08/12 14:22:53;;;;;;;5.77;5.37;;;;;;;;;;5027918;28;20197;-53
2023/08/12 14:25:19;;;;;;;5.73;5.33;;;;;;;;;;5010555;28;20225;-52
2023/08/12 14:27:46;;;;;;;5.83;5.40;;;;;;;;;;5028455;28;20186;-52
2023/08/12 14:30:12;;;;;;;5.50;5.10;;;;;;;;;;5028891;28;20525;-52
2023/08/12 14:32:39;;;;;;;6.17;5.67;;;;;;;;;;5028824;28;20181;-53
2023/08/12 14:35:05;;;;;;;6.70;6.20;;;;;;;;;;5028590;28;20194;-53
2023/08/12 14:37:31;;;;;;;5.63;5.17;;;;;;;;;;5028439;28;20237;-52
2023/08/12 14:39:58;;;;;;;6.47;5.87;;;;;;;;;;5028225;28;20178;-52